createdAt,value
2024-05-09T00:02:14.948Z,52.57
2024-05-09T00:05:20.067Z,54.84
2024-05-09T00:08:25.559Z,54.15
2024-05-09T00:11:30.663Z,53.62
2024-05-09T00:14:38.332Z,53.19
2024-05-09T00:17:43.856Z,53.25
2024-05-09T00:20:49.025Z,52.91
2024-05-09T00:23:53.989Z,53.49
2024-05-09T00:26:59.259Z,53.75
2024-05-09T00:30:07.507Z,53.74
2024-05-09T00:33:12.615Z,52.95
2024-05-09T00:36:17.681Z,53.02
2024-05-09T00:39:22.600Z,53.17
2024-05-09T00:42:27.680Z,52.56
2024-05-09T00:45:36.388Z,53.50
2024-05-09T00:48:41.558Z,53.14
2024-05-09T00:51:46.622Z,53.59
2024-05-09T00:54:51.751Z,53.19
2024-05-09T00:57:57.763Z,53.48
2024-05-09T01:01:06.095Z,53.34
2024-05-09T01:04:11.663Z,53.55
2024-05-09T01:07:16.948Z,54.38
2024-05-09T01:10:28.024Z,54.68
2024-05-09T01:13:38.871Z,55.18
2024-05-09T01:16:46.631Z,55.84
2024-05-09T01:19:51.618Z,56.95
2024-05-09T01:22:57.239Z,57.26
2024-05-09T01:26:04.855Z,57.16
2024-05-09T01:29:09.918Z,56.18
2024-05-09T01:32:15.210Z,55.00
2024-05-09T01:35:23.650Z,56.10
2024-05-09T01:38:28.925Z,56.82
2024-05-09T01:41:36.570Z,57.36
2024-05-09T01:44:41.521Z,56.72
2024-05-09T01:47:46.701Z,56.75
2024-05-09T01:50:51.919Z,56.45
2024-05-09T01:53:59.184Z,57.23
2024-05-09T01:57:07.170Z,59.33
2024-05-09T02:00:15.680Z,59.05
2024-05-09T02:03:24.261Z,59.91
2024-05-09T02:06:29.258Z,59.55
2024-05-09T02:09:34.265Z,59.17
2024-05-09T02:12:42.090Z,59.86
2024-05-09T02:15:47.384Z,61.36
2024-05-09T02:18:52.651Z,60.22
2024-05-09T02:21:57.611Z,59.93
2024-05-09T02:25:02.528Z,61.44
2024-05-09T02:28:10.617Z,62.13
2024-05-09T02:31:16.039Z,62.18
2024-05-09T02:34:21.159Z,62.02
2024-05-09T02:37:26.085Z,61.84
2024-05-09T02:40:36.533Z,62.17
2024-05-09T02:43:46.359Z,62.74
2024-05-09T02:46:52.780Z,62.95
2024-05-09T02:49:55.330Z,62.46
2024-05-09T02:53:00.835Z,62.45
2024-05-09T02:56:03.523Z,61.66
2024-05-09T02:59:11.579Z,62.05
2024-05-09T03:02:14.037Z,62.02
2024-05-09T03:05:19.161Z,61.82
2024-05-09T03:08:21.601Z,62.51
2024-05-09T03:11:27.604Z,61.49
2024-05-09T03:14:32.684Z,61.28
2024-05-09T03:17:37.824Z,62.95
2024-05-09T03:20:40.557Z,62.22
2024-05-09T03:23:46.566Z,60.53
2024-05-09T03:26:49.007Z,61.65
2024-05-09T03:29:57.435Z,62.02
2024-05-09T03:32:59.916Z,62.92
2024-05-09T03:36:09.790Z,64.98
2024-05-09T03:39:16.042Z,64.25
2024-05-09T03:42:21.055Z,64.33
2024-05-09T03:45:28.715Z,63.89
2024-05-09T03:51:39.853Z,62.27
2024-05-09T03:54:45.750Z,62.56
2024-05-09T03:57:50.793Z,63.30
2024-05-09T04:00:58.547Z,63.21
2024-05-09T04:04:01.016Z,63.32
2024-05-09T04:07:06.247Z,63.09
2024-05-09T04:10:16.784Z,62.24
2024-05-09T04:13:25.759Z,63.61
2024-05-09T04:16:30.940Z,66.01
2024-05-09T04:19:36.038Z,65.58
2024-05-09T04:22:38.496Z,63.73
2024-05-09T04:25:47.034Z,63.40
2024-05-09T04:28:52.375Z,64.19
2024-05-09T04:32:01.786Z,63.23
2024-05-09T04:35:05.351Z,63.15
2024-05-09T04:38:11.772Z,65.50
2024-05-09T04:41:14.286Z,66.02
2024-05-09T04:44:19.457Z,66.69
2024-05-09T04:47:27.282Z,67.28
2024-05-09T04:50:36.303Z,66.38
2024-05-09T04:53:43.978Z,65.04
2024-05-09T04:56:46.597Z,64.12
2024-05-09T04:59:51.943Z,63.78
2024-05-09T05:02:57.144Z,63.06
2024-05-09T05:06:02.655Z,62.18
2024-05-09T05:09:05.308Z,61.71
2024-05-09T05:12:31.114Z,60.30
2024-05-09T05:15:33.580Z,59.21
2024-05-09T05:18:41.477Z,57.80
2024-05-09T05:21:46.954Z,58.57
2024-05-09T05:24:49.291Z,58.21
2024-05-09T05:27:54.692Z,58.21
2024-05-09T05:30:57.181Z,57.73
2024-05-09T05:34:04.895Z,55.74
2024-05-09T05:37:07.448Z,54.36
2024-05-09T05:40:20.688Z,53.85
2024-05-09T05:43:30.045Z,52.12
2024-05-09T05:46:35.115Z,52.71
2024-05-09T05:49:40.354Z,50.97
2024-05-09T05:52:45.418Z,50.91
2024-05-09T05:55:47.761Z,50.57
2024-05-09T05:58:55.794Z,51.12
2024-05-09T06:01:58.309Z,49.52
2024-05-09T06:05:06.508Z,47.92
2024-05-09T06:08:11.859Z,48.41
2024-05-09T06:11:14.931Z,47.86
2024-05-09T06:14:20.173Z,48.39
2024-05-09T06:17:22.708Z,46.15
2024-05-09T06:20:35.924Z,46.47
2024-05-09T06:23:45.874Z,45.35
2024-05-09T06:26:51.025Z,44.37
2024-05-09T06:29:53.475Z,45.34
2024-05-09T06:32:58.758Z,45.41
2024-05-09T06:36:04.224Z,43.69
2024-05-09T06:39:10.281Z,43.35
2024-05-09T06:42:12.633Z,44.90
2024-05-09T06:45:18.486Z,44.02
2024-05-09T06:48:22.357Z,45.24
2024-05-09T06:51:30.379Z,42.14
2024-05-09T06:54:32.857Z,42.77
2024-05-09T06:57:40.582Z,42.40
2024-05-09T07:00:44.940Z,42.93
2024-05-09T07:03:50.034Z,42.63
2024-05-09T07:06:57.688Z,42.62
2024-05-09T07:10:00.034Z,43.28
2024-05-09T07:13:05.371Z,42.04
2024-05-09T07:16:07.827Z,43.17
2024-05-09T07:19:13.066Z,41.83
2024-05-09T07:22:20.902Z,41.04
2024-05-09T07:25:23.544Z,39.11
2024-05-09T07:28:28.568Z,40.20
2024-05-09T07:31:31.716Z,40.60
2024-05-09T07:34:37.039Z,41.00
2024-05-09T07:37:42.336Z,41.08
2024-05-09T07:40:47.371Z,39.88
2024-05-09T07:43:52.454Z,41.92
2024-05-09T07:48:13.937Z,37.86
2024-05-09T07:53:39.892Z,38.55
2024-05-09T07:56:49.729Z,39.61
2024-05-09T07:59:54.981Z,39.32
2024-05-09T08:03:00.086Z,39.51
2024-05-09T08:06:02.407Z,39.46
2024-05-09T08:09:13.874Z,39.53
2024-05-09T08:12:24.210Z,39.90
2024-05-09T08:15:26.729Z,37.52
2024-05-09T08:18:31.992Z,38.84
2024-05-09T08:21:34.553Z,38.18
2024-05-09T08:24:42.304Z,36.63
2024-05-09T08:27:44.811Z,38.27
2024-05-09T08:30:50.088Z,37.99
2024-05-09T08:33:52.789Z,36.65
2024-05-09T08:37:03.720Z,37.68
2024-05-09T08:40:24.080Z,37.85
2024-05-09T08:43:38.151Z,36.45
2024-05-09T08:46:44.452Z,34.66
2024-05-09T08:49:58.431Z,35.60
2024-05-09T08:53:03.525Z,36.03
2024-05-09T08:56:14.176Z,33.56
2024-05-09T08:59:24.055Z,34.45
2024-05-09T09:02:27.871Z,35.10
2024-05-09T09:05:34.440Z,32.26
2024-05-09T09:08:39.519Z,33.92
2024-05-09T09:11:47.441Z,33.04
2024-05-09T09:14:52.586Z,33.11
2024-05-09T09:17:59.724Z,32.62
2024-05-09T09:21:05.198Z,33.53
2024-05-09T09:24:10.021Z,33.17
2024-05-09T09:27:19.420Z,31.66
2024-05-09T09:30:34.034Z,32.50
2024-05-09T09:33:45.082Z,31.91
2024-05-09T09:36:49.172Z,32.63
2024-05-09T09:39:54.781Z,32.59
2024-05-09T09:43:01.683Z,31.70
2024-05-09T09:46:12.520Z,33.10
2024-05-09T09:49:19.653Z,33.21
2024-05-09T09:52:25.413Z,33.37
2024-05-09T09:55:28.754Z,29.78
2024-05-09T09:58:39.105Z,30.70
2024-05-09T10:01:44.650Z,31.90
2024-05-09T10:04:47.364Z,32.65
2024-05-09T10:07:53.833Z,31.20
2024-05-09T10:10:57.419Z,31.50
2024-05-09T10:14:06.020Z,32.35
2024-05-09T10:17:08.435Z,30.43
2024-05-09T10:20:21.367Z,30.84
2024-05-09T10:23:32.418Z,32.04
2024-05-09T10:26:36.489Z,30.86
2024-05-09T10:29:54.940Z,31.38
2024-05-09T10:32:57.455Z,32.17
2024-05-09T10:36:05.975Z,32.42
2024-05-09T10:39:13.641Z,31.67
2024-05-09T10:42:17.041Z,32.91
2024-05-09T10:45:24.935Z,32.42
2024-05-09T10:48:27.596Z,31.99
2024-05-09T10:51:33.008Z,30.20
2024-05-09T10:54:38.815Z,30.40
2024-05-09T10:57:44.147Z,31.72
2024-05-09T11:00:50.375Z,30.38
2024-05-09T11:03:55.623Z,29.87
2024-05-09T11:07:04.588Z,30.83
2024-05-09T11:10:12.359Z,30.71
2024-05-09T11:13:17.775Z,30.16
2024-05-09T11:16:22.918Z,28.58
2024-05-09T11:19:33.311Z,29.18
2024-05-09T11:22:35.842Z,28.77
2024-05-09T11:25:41.054Z,29.83
2024-05-09T11:28:45.343Z,28.94
2024-05-09T11:31:53.573Z,29.88
2024-05-09T11:34:55.950Z,29.72
2024-05-09T11:38:01.160Z,28.36
2024-05-09T11:41:07.472Z,27.39
2024-05-09T11:44:13.282Z,28.83
2024-05-09T11:47:21.934Z,28.48
2024-05-09T11:50:29.957Z,28.03
2024-05-09T11:53:39.727Z,29.10
2024-05-09T11:56:42.204Z,27.82
2024-05-09T11:59:47.203Z,28.96
2024-05-09T12:02:56.324Z,28.20
2024-05-09T12:05:59.012Z,26.77
2024-05-09T12:09:04.389Z,28.25
2024-05-09T12:12:06.969Z,28.52
2024-05-09T12:15:12.090Z,28.11
2024-05-09T12:18:17.210Z,29.33
2024-05-09T12:21:22.138Z,28.79
2024-05-09T12:24:25.312Z,28.10
2024-05-09T12:27:30.670Z,29.04
2024-05-09T12:30:40.209Z,29.95
2024-05-09T12:33:49.377Z,30.06
2024-05-09T12:36:52.070Z,29.11
2024-05-09T12:39:57.347Z,29.29
2024-05-09T12:43:02.680Z,29.57
2024-05-09T12:46:08.378Z,28.03
2024-05-09T12:49:16.389Z,28.20
2024-05-09T12:52:22.727Z,27.35
2024-05-09T12:55:25.186Z,26.98
2024-05-09T12:58:30.177Z,27.29
2024-05-09T13:01:35.404Z,29.00
2024-05-09T13:04:40.565Z,28.07
2024-05-09T13:07:45.618Z,27.20
2024-05-09T13:10:48.619Z,27.79
2024-05-09T13:13:53.712Z,27.88
2024-05-09T13:16:56.221Z,28.28
2024-05-09T13:20:05.588Z,26.56
2024-05-09T13:23:10.714Z,26.98
2024-05-09T13:26:13.184Z,27.67
2024-05-09T13:29:18.491Z,26.61
2024-05-09T13:32:20.854Z,24.67
2024-05-09T13:35:28.515Z,26.56
2024-05-09T13:38:31.141Z,26.44
2024-05-09T13:41:36.119Z,25.43
2024-05-09T13:44:38.689Z,25.86
2024-05-09T13:47:44.162Z,25.30
2024-05-09T13:50:52.862Z,24.10
2024-05-09T13:53:59.442Z,25.41
2024-05-09T13:57:01.831Z,24.56
2024-05-09T14:00:22.307Z,23.52
2024-05-09T14:03:33.860Z,23.83
2024-05-09T14:06:41.775Z,24.69
2024-05-09T14:09:47.285Z,23.93
2024-05-09T14:12:55.053Z,23.78
2024-05-09T14:15:57.942Z,23.26
2024-05-09T14:19:04.992Z,25.05
2024-05-09T14:22:12.920Z,24.72
2024-05-09T14:25:15.518Z,25.69
2024-05-09T14:28:21.315Z,27.09
2024-05-09T14:31:26.925Z,26.98
2024-05-09T14:34:29.800Z,22.85
2024-05-09T14:37:39.724Z,23.33
2024-05-09T14:40:44.053Z,24.01
2024-05-09T14:44:27.696Z,24.46
2024-05-09T14:48:06.559Z,23.30
2024-05-09T14:51:42.460Z,23.70
2024-05-09T14:55:03.994Z,23.42
2024-05-09T14:58:10.195Z,22.93
2024-05-09T15:01:15.754Z,22.35
2024-05-09T15:04:18.530Z,23.29
2024-05-09T15:07:23.968Z,24.21
2024-05-09T15:10:35.560Z,23.34
2024-05-09T15:13:42.038Z,23.85
2024-05-09T15:16:44.705Z,24.75
2024-05-09T15:19:50.202Z,23.22
2024-05-09T15:22:52.803Z,23.10
2024-05-09T15:26:00.794Z,22.82
2024-05-09T15:29:03.554Z,23.56
2024-05-09T15:32:09.319Z,24.88
2024-05-09T15:35:14.606Z,24.56
2024-05-09T15:38:20.907Z,24.28
2024-05-09T15:41:29.159Z,25.38
2024-05-09T15:44:35.408Z,24.12
2024-05-09T15:47:40.979Z,24.11
2024-05-09T15:50:43.964Z,23.61
2024-05-09T15:53:50.816Z,25.12
2024-05-09T15:56:56.336Z,24.78
2024-05-09T16:00:02.029Z,24.34
2024-05-09T16:03:23.686Z,25.12
2024-05-09T16:06:29.064Z,25.49
2024-05-09T16:09:33.084Z,25.05
2024-05-09T16:12:44.475Z,25.45
2024-05-09T16:15:47.606Z,25.25
2024-05-09T16:18:56.279Z,26.67
2024-05-09T16:22:00.714Z,25.56
2024-05-09T16:25:06.528Z,26.31
2024-05-09T16:28:17.612Z,25.26
2024-05-09T16:31:20.487Z,25.30
2024-05-09T16:34:26.215Z,24.51
2024-05-09T16:37:31.893Z,25.81
2024-05-09T16:40:38.961Z,25.66
2024-05-09T16:43:49.232Z,26.68
2024-05-09T16:46:51.899Z,26.29
2024-05-09T16:49:57.295Z,26.18
2024-05-09T16:53:00.394Z,27.06
2024-05-09T16:56:06.762Z,27.85
2024-05-09T16:59:14.900Z,26.83
2024-05-09T17:02:18.535Z,30.32
2024-05-09T17:05:24.674Z,30.49
2024-05-09T17:08:27.650Z,30.81
2024-05-09T17:11:36.274Z,31.63
2024-05-09T17:14:44.586Z,34.02
2024-05-09T17:17:51.725Z,35.78
2024-05-09T17:20:56.925Z,36.89
2024-05-09T17:23:59.595Z,36.48
2024-05-09T17:27:04.997Z,37.73
2024-05-09T17:30:21.163Z,38.11
2024-05-09T17:33:31.607Z,38.18
2024-05-09T17:36:36.900Z,38.73
2024-05-09T17:39:39.922Z,39.10
2024-05-09T17:42:45.298Z,39.36
2024-05-09T17:45:53.585Z,39.30
2024-05-09T17:48:58.779Z,39.66
2024-05-09T17:52:05.632Z,40.55
2024-05-09T17:55:08.548Z,40.72
2024-05-09T17:58:15.763Z,40.84
2024-05-09T18:01:24.360Z,41.67
2024-05-09T18:04:29.069Z,42.95
2024-05-09T18:07:36.530Z,42.57
2024-05-09T18:10:44.877Z,42.99
2024-05-09T18:13:47.798Z,42.72
2024-05-09T18:16:57.046Z,43.12
2024-05-09T18:20:02.070Z,43.07
2024-05-09T18:23:18.779Z,42.40
2024-05-09T18:26:29.976Z,41.95
2024-05-09T18:29:32.569Z,42.15
2024-05-09T18:32:40.582Z,42.02
2024-05-09T18:35:46.793Z,41.82
2024-05-09T18:38:50.258Z,41.62
2024-05-09T18:41:55.930Z,42.01
2024-05-09T18:44:58.852Z,41.73
2024-05-09T18:48:08.179Z,41.60
2024-05-09T18:51:14.966Z,41.48
2024-05-09T18:54:20.525Z,43.06
2024-05-09T18:57:25.817Z,43.73
2024-05-09T19:00:34.761Z,44.74
2024-05-09T19:03:46.380Z,47.25
2024-05-09T19:06:49.602Z,49.97
2024-05-09T19:09:54.971Z,50.01
2024-05-09T19:12:57.921Z,48.49
2024-05-09T19:16:03.586Z,48.46
2024-05-09T19:19:10.153Z,49.75
2024-05-09T19:22:15.495Z,49.59
2024-05-09T19:25:17.978Z,49.27
2024-05-09T19:28:23.276Z,48.43
2024-05-09T19:31:29.075Z,48.57
2024-05-09T19:34:34.490Z,50.71
2024-05-09T19:37:41.447Z,50.68
2024-05-09T19:40:48.951Z,49.90
2024-05-09T19:43:54.570Z,50.18
2024-05-09T19:46:57.790Z,51.34
2024-05-09T19:50:10.781Z,51.16
2024-05-09T19:53:22.446Z,50.56
2024-05-09T19:56:25.067Z,49.45
2024-05-09T19:59:30.353Z,48.88
2024-05-09T20:02:35.720Z,51.66
2024-05-09T20:05:42.871Z,51.61
2024-05-09T20:08:48.297Z,51.87
2024-05-09T20:11:50.824Z,52.05
2024-05-09T20:14:56.049Z,51.89
2024-05-09T20:18:01.346Z,53.36
2024-05-09T20:21:25.351Z,53.36
2024-05-09T20:24:33.943Z,53.13
2024-05-09T20:27:50.468Z,53.04
2024-05-09T20:30:55.998Z,53.46
2024-05-09T20:33:58.554Z,54.65
2024-05-09T20:37:06.837Z,52.37
2024-05-09T20:40:18.158Z,54.21
2024-05-09T20:43:30.546Z,57.40
2024-05-09T20:46:33.479Z,55.46
2024-05-09T20:49:39.057Z,53.88
2024-05-09T20:52:44.696Z,53.39
2024-05-09T20:55:51.722Z,54.32
2024-05-09T20:58:55.343Z,55.06
2024-05-09T21:02:00.904Z,55.01
2024-05-09T21:05:04.357Z,57.01
2024-05-09T21:08:12.607Z,56.38
2024-05-09T21:11:23.143Z,55.97
2024-05-09T21:14:29.089Z,57.48
2024-05-09T21:17:32.589Z,56.13
2024-05-09T21:20:38.180Z,55.89
2024-05-09T21:23:43.592Z,57.23
2024-05-09T21:26:49.390Z,57.18
2024-05-09T21:29:53.541Z,56.48
2024-05-09T21:33:05.141Z,57.49
2024-05-09T21:36:12.505Z,58.05
2024-05-09T21:39:20.303Z,57.95
2024-05-09T21:42:25.702Z,57.62
2024-05-09T21:45:28.558Z,57.90
2024-05-09T21:48:33.917Z,58.08
2024-05-09T21:51:37.212Z,59.07
2024-05-09T21:54:45.377Z,58.16
2024-05-09T21:57:47.958Z,58.17
2024-05-09T22:00:53.367Z,60.40
2024-05-09T22:03:56.516Z,57.95
2024-05-09T22:07:01.866Z,58.72
2024-05-09T22:10:12.880Z,58.02
2024-05-09T22:13:24.961Z,58.61
2024-05-09T22:16:27.552Z,60.40
2024-05-09T22:19:35.257Z,60.13
2024-05-09T22:22:37.870Z,58.59
2024-05-09T22:25:45.644Z,58.95
2024-05-09T22:28:48.362Z,59.88
2024-05-09T22:31:53.579Z,59.66
2024-05-09T22:34:56.673Z,60.26
2024-05-09T22:38:02.200Z,60.71
2024-05-09T22:41:09.355Z,59.86
2024-05-09T22:44:14.566Z,59.60
2024-05-09T22:47:17.068Z,60.63
2024-05-09T22:50:32.780Z,60.31
2024-05-09T22:53:38.961Z,60.38
2024-05-09T22:56:46.851Z,59.33
2024-05-09T22:59:49.353Z,60.18
2024-05-09T23:02:54.635Z,60.35
2024-05-09T23:06:00.063Z,59.73
2024-05-09T23:09:02.672Z,60.61
2024-05-09T23:12:10.723Z,61.20
2024-05-09T23:15:13.387Z,60.88
2024-05-09T23:18:18.762Z,60.42
2024-05-09T23:21:24.233Z,61.37
2024-05-09T23:24:26.831Z,62.24
2024-05-09T23:27:34.714Z,60.48
2024-05-09T23:30:40.110Z,60.70
2024-05-09T23:33:48.686Z,59.78
2024-05-09T23:36:51.524Z,59.86
2024-05-09T23:39:56.724Z,59.97
2024-05-09T23:43:02.038Z,61.72
2024-05-09T23:46:07.573Z,59.96
2024-05-09T23:49:11.411Z,60.86
2024-05-09T23:52:16.528Z,60.09
2024-05-09T23:55:19.063Z,58.82
2024-05-09T23:58:28.504Z,61.09
